sensor_id;sensor_type;location;lat;lon;timestamp;P1;P2;P0
62631;PMS5003;48703;51.248;-0.546;2023-04-27T00:02:31;16.13;14.53;
62631;PMS5003;48703;51.248;-0.546;2023-04-27T00:05:33;16.81;15.20;
62631;PMS5003;48703;51.248;-0.546;2023-04-27T00:08:33;16.86;16.01;
62631;PMS5003;48703;51.248;-0.546;2023-04-27T00:11:34;16.65;16.04;
62631;PMS5003;48703;51.248;-0.546;2023-04-27T00:14:35;18.04;16.43;
62631;PMS5003;48703;51.248;-0.546;2023-04-27T00:17:37;17.73;16.37;
62631;PMS5003;48703;51.248;-0.546;2023-04-27T00:20:39;17.19;13.86;
62631;PMS5003;48703;51.248;-0.546;2023-04-27T00:23:40;18.17;16.36;
62631;PMS5003;48703;51.248;-0.546;2023-04-27T00:26:42;16.33;14.33;
62631;PMS5003;48703;51.248;-0.546;2023-04-27T00:29:44;16.28;15.54;
62631;PMS5003;48703;51.248;-0.546;2023-04-27T00:32:46;16.86;14.83;
62631;PMS5003;48703;51.248;-0.546;2023-04-27T00:35:46;18.67;18.00;
62631;PMS5003;48703;51.248;-0.546;2023-04-27T00:38:48;17.34;16.04;
62631;PMS5003;48703;51.248;-0.546;2023-04-27T00:41:50;18.51;16.63;
62631;PMS5003;48703;51.248;-0.546;2023-04-27T00:44:52;19.09;17.14;
62631;PMS5003;48703;51.248;-0.546;2023-04-27T00:47:53;19.41;17.96;
62631;PMS5003;48703;51.248;-0.546;2023-04-27T00:50:54;20.22;17.67;
62631;PMS5003;48703;51.248;-0.546;2023-04-27T00:53:56;18.72;15.83;
62631;PMS5003;48703;51.248;-0.546;2023-04-27T00:56:58;17.80;16.06;
62631;PMS5003;48703;51.248;-0.546;2023-04-27T00:59:59;20.63;18.60;
62631;PMS5003;48703;51.248;-0.546;2023-04-27T01:03:01;20.20;17.93;
62631;PMS5003;48703;51.248;-0.546;2023-04-27T01:06:03;19.30;16.72;
62631;PMS5003;48703;51.248;-0.546;2023-04-27T01:09:04;18.84;18.00;
62631;PMS5003;48703;51.248;-0.546;2023-04-27T01:12:06;17.46;17.03;
62631;PMS5003;48703;51.248;-0.546;2023-04-27T01:15:08;22.26;19.72;
62631;PMS5003;48703;51.248;-0.546;2023-04-27T01:18:09;22.41;20.87;
62631;PMS5003;48703;51.248;-0.546;2023-04-27T01:21:10;21.19;18.53;
62631;PMS5003;48703;51.248;-0.546;2023-04-27T01:24:12;22.06;18.61;
62631;PMS5003;48703;51.248;-0.546;2023-04-27T01:27:14;20.83;19.41;
62631;PMS5003;48703;51.248;-0.546;2023-04-27T01:30:15;21.83;19.25;
62631;PMS5003;48703;51.248;-0.546;2023-04-27T01:33:17;22.44;19.76;
62631;PMS5003;48703;51.248;-0.546;2023-04-27T01:36:18;22.33;21.17;
62631;PMS5003;48703;51.248;-0.546;2023-04-27T01:39:20;22.62;20.36;
62631;PMS5003;48703;51.248;-0.546;2023-04-27T01:42:22;22.70;21.41;
62631;PMS5003;48703;51.248;-0.546;2023-04-27T01:45:23;21.64;19.34;
62631;PMS5003;48703;51.248;-0.546;2023-04-27T01:48:24;26.23;22.48;
62631;PMS5003;48703;51.248;-0.546;2023-04-27T01:51:26;22.61;20.97;
62631;PMS5003;48703;51.248;-0.546;2023-04-27T01:54:28;25.01;22.80;
62631;PMS5003;48703;51.248;-0.546;2023-04-27T01:57:29;23.29;21.80;
62631;PMS5003;48703;51.248;-0.546;2023-04-27T02:00:31;24.62;21.87;
62631;PMS5003;48703;51.248;-0.546;2023-04-27T02:03:33;23.67;21.93;
62631;PMS5003;48703;51.248;-0.546;2023-04-27T02:06:34;23.64;21.43;
62631;PMS5003;48703;51.248;-0.546;2023-04-27T02:09:36;24.14;22.51;
62631;PMS5003;48703;51.248;-0.546;2023-04-27T02:12:38;23.57;21.46;
62631;PMS5003;48703;51.248;-0.546;2023-04-27T02:15:40;24.43;20.96;
62631;PMS5003;48703;51.248;-0.546;2023-04-27T02:18:41;23.16;21.51;
62631;PMS5003;48703;51.248;-0.546;2023-04-27T02:21:43;21.61;20.22;
62631;PMS5003;48703;51.248;-0.546;2023-04-27T02:24:44;24.96;24.03;
62631;PMS5003;48703;51.248;-0.546;2023-04-27T02:27:46;25.43;22.53;
62631;PMS5003;48703;51.248;-0.546;2023-04-27T02:30:47;27.22;23.97;
62631;PMS5003;48703;51.248;-0.546;2023-04-27T02:33:48;26.07;23.78;
62631;PMS5003;48703;51.248;-0.546;2023-04-27T02:36:49;26.97;24.09;
62631;PMS5003;48703;51.248;-0.546;2023-04-27T02:39:51;29.82;27.59;
62631;PMS5003;48703;51.248;-0.546;2023-04-27T02:42:52;28.62;26.81;
62631;PMS5003;48703;51.248;-0.546;2023-04-27T02:45:55;31.68;27.20;
62631;PMS5003;48703;51.248;-0.546;2023-04-27T02:48:56;32.01;27.59;
62631;PMS5003;48703;51.248;-0.546;2023-04-27T02:51:58;29.49;25.83;
62631;PMS5003;48703;51.248;-0.546;2023-04-27T02:54:59;31.97;28.88;
62631;PMS5003;48703;51.248;-0.546;2023-04-27T02:57:59;30.25;27.61;
62631;PMS5003;48703;51.248;-0.546;2023-04-27T03:01:01;33.23;28.93;
62631;PMS5003;48703;51.248;-0.546;2023-04-27T03:04:02;33.26;27.99;
62631;PMS5003;48703;51.248;-0.546;2023-04-27T03:07:04;29.70;27.33;
62631;PMS5003;48703;51.248;-0.546;2023-04-27T03:10:05;33.19;31.29;
62631;PMS5003;48703;51.248;-0.546;2023-04-27T03:13:06;34.40;31.00;
62631;PMS5003;48703;51.248;-0.546;2023-04-27T03:16:09;32.67;29.77;
62631;PMS5003;48703;51.248;-0.546;2023-04-27T03:19:10;35.28;30.58;
62631;PMS5003;48703;51.248;-0.546;2023-04-27T03:22:12;35.72;33.57;
62631;PMS5003;48703;51.248;-0.546;2023-04-27T03:25:13;38.53;32.91;
62631;PMS5003;48703;51.248;-0.546;2023-04-27T03:28:15;38.41;34.79;
62631;PMS5003;48703;51.248;-0.546;2023-04-27T03:31:16;36.87;33.31;
62631;PMS5003;48703;51.248;-0.546;2023-04-27T03:34:17;37.19;32.00;
62631;PMS5003;48703;51.248;-0.546;2023-04-27T03:37:19;39.68;34.59;
62631;PMS5003;48703;51.248;-0.546;2023-04-27T03:40:20;40.10;36.71;
62631;PMS5003;48703;51.248;-0.546;2023-04-27T03:43:21;34.72;31.10;
62631;PMS5003;48703;51.248;-0.546;2023-04-27T03:46:22;35.96;32.35;
62631;PMS5003;48703;51.248;-0.546;2023-04-27T03:49:24;38.22;31.87;
62631;PMS5003;48703;51.248;-0.546;2023-04-27T03:52:24;39.03;34.40;
62631;PMS5003;48703;51.248;-0.546;2023-04-27T03:55:26;37.81;33.63;
62631;PMS5003;48703;51.248;-0.546;2023-04-27T03:58:28;39.77;36.54;
62631;PMS5003;48703;51.248;-0.546;2023-04-27T04:01:30;38.29;34.01;
62631;PMS5003;48703;51.248;-0.546;2023-04-27T04:04:32;43.22;39.01;
62631;PMS5003;48703;51.248;-0.546;2023-04-27T04:07:33;40.00;36.46;
62631;PMS5003;48703;51.248;-0.546;2023-04-27T04:10:35;43.15;38.40;
62631;PMS5003;48703;51.248;-0.546;2023-04-27T04:13:37;41.43;37.78;
62631;PMS5003;48703;51.248;-0.546;2023-04-27T04:16:38;42.47;37.51;
62631;PMS5003;48703;51.248;-0.546;2023-04-27T04:19:40;43.69;38.66;
62631;PMS5003;48703;51.248;-0.546;2023-04-27T04:22:42;42.19;36.99;
62631;PMS5003;48703;51.248;-0.546;2023-04-27T04:25:44;40.80;36.00;
62631;PMS5003;48703;51.248;-0.546;2023-04-27T04:28:44;33.60;30.09;
62631;PMS5003;48703;51.248;-0.546;2023-04-27T04:31:46;34.60;30.61;
62631;PMS5003;48703;51.248;-0.546;2023-04-27T04:34:47;36.25;32.20;
62631;PMS5003;48703;51.248;-0.546;2023-04-27T04:37:49;32.71;29.25;
62631;PMS5003;48703;51.248;-0.546;2023-04-27T04:40:50;35.78;33.55;
62631;PMS5003;48703;51.248;-0.546;2023-04-27T04:43:52;37.87;32.71;
62631;PMS5003;48703;51.248;-0.546;2023-04-27T04:46:53;33.68;31.70;
62631;PMS5003;48703;51.248;-0.546;2023-04-27T04:49:54;35.75;31.94;
62631;PMS5003;48703;51.248;-0.546;2023-04-27T04:52:56;35.84;32.74;
62631;PMS5003;48703;51.248;-0.546;2023-04-27T04:55:57;43.90;38.09;
62631;PMS5003;48703;51.248;-0.546;2023-04-27T04:58:58;40.57;35.42;
62631;PMS5003;48703;51.248;-0.546;2023-04-27T05:02:00;41.54;37.28;
62631;PMS5003;48703;51.248;-0.546;2023-04-27T05:05:02;43.00;37.88;
62631;PMS5003;48703;51.248;-0.546;2023-04-27T05:08:03;42.43;35.61;
62631;PMS5003;48703;51.248;-0.546;2023-04-27T05:11:05;43.26;39.22;
62631;PMS5003;48703;51.248;-0.546;2023-04-27T05:14:06;40.26;37.36;
62631;PMS5003;48703;51.248;-0.546;2023-04-27T05:17:07;42.42;38.72;
62631;PMS5003;48703;51.248;-0.546;2023-04-27T05:20:09;44.03;38.09;
62631;PMS5003;48703;51.248;-0.546;2023-04-27T05:23:10;43.43;40.37;
62631;PMS5003;48703;51.248;-0.546;2023-04-27T05:26:12;46.20;40.68;
62631;PMS5003;48703;51.248;-0.546;2023-04-27T05:29:14;43.88;39.62;
62631;PMS5003;48703;51.248;-0.546;2023-04-27T05:32:15;42.64;39.26;
62631;PMS5003;48703;51.248;-0.546;2023-04-27T05:35:16;43.25;38.59;
62631;PMS5003;48703;51.248;-0.546;2023-04-27T05:38:18;43.48;37.72;
62631;PMS5003;48703;51.248;-0.546;2023-04-27T05:41:19;42.38;38.85;
62631;PMS5003;48703;51.248;-0.546;2023-04-27T05:44:20;46.57;39.49;
62631;PMS5003;48703;51.248;-0.546;2023-04-27T05:47:21;46.56;41.31;
62631;PMS5003;48703;51.248;-0.546;2023-04-27T05:50:22;46.88;39.91;
62631;PMS5003;48703;51.248;-0.546;2023-04-27T05:53:23;43.80;38.74;
62631;PMS5003;48703;51.248;-0.546;2023-04-27T05:56:24;44.14;40.09;
62631;PMS5003;48703;51.248;-0.546;2023-04-27T05:59:26;49.74;42.07;
62631;PMS5003;48703;51.248;-0.546;2023-04-27T06:02:28;47.51;41.84;
62631;PMS5003;48703;51.248;-0.546;2023-04-27T06:05:29;46.36;39.80;
62631;PMS5003;48703;51.248;-0.546;2023-04-27T06:08:31;46.97;41.25;
62631;PMS5003;48703;51.248;-0.546;2023-04-27T06:11:32;48.17;42.67;
62631;PMS5003;48703;51.248;-0.546;2023-04-27T06:14:34;47.22;41.91;
62631;PMS5003;48703;51.248;-0.546;2023-04-27T06:17:36;48.65;42.52;
62631;PMS5003;48703;51.248;-0.546;2023-04-27T06:20:38;44.28;39.44;
62631;PMS5003;48703;51.248;-0.546;2023-04-27T06:23:40;48.93;43.69;
62631;PMS5003;48703;51.248;-0.546;2023-04-27T06:26:41;47.21;43.36;
62631;PMS5003;48703;51.248;-0.546;2023-04-27T06:29:42;45.32;41.66;
62631;PMS5003;48703;51.248;-0.546;2023-04-27T06:32:44;45.74;40.96;
62631;PMS5003;48703;51.248;-0.546;2023-04-27T06:35:45;41.54;38.68;
62631;PMS5003;48703;51.248;-0.546;2023-04-27T06:38:47;43.88;39.21;
62631;PMS5003;48703;51.248;-0.546;2023-04-27T06:41:49;45.70;40.04;
62631;PMS5003;48703;51.248;-0.546;2023-04-27T06:44:52;46.97;39.79;
62631;PMS5003;48703;51.248;-0.546;2023-04-27T06:47:52;41.55;38.07;
62631;PMS5003;48703;51.248;-0.546;2023-04-27T06:50:54;42.32;35.01;
62631;PMS5003;48703;51.248;-0.546;2023-04-27T06:53:56;44.81;39.48;
62631;PMS5003;48703;51.248;-0.546;2023-04-27T06:56:58;42.70;38.35;
62631;PMS5003;48703;51.248;-0.546;2023-04-27T07:00:00;42.94;38.45;
62631;PMS5003;48703;51.248;-0.546;2023-04-27T07:03:02;47.51;40.41;
62631;PMS5003;48703;51.248;-0.546;2023-04-27T07:06:04;44.35;38.94;
62631;PMS5003;48703;51.248;-0.546;2023-04-27T07:09:06;42.59;38.07;
62631;PMS5003;48703;51.248;-0.546;2023-04-27T07:12:08;40.45;36.17;
62631;PMS5003;48703;51.248;-0.546;2023-04-27T07:15:11;47.16;41.04;
62631;PMS5003;48703;51.248;-0.546;2023-04-27T07:18:12;43.61;39.80;
62631;PMS5003;48703;51.248;-0.546;2023-04-27T07:21:14;45.25;38.41;
62631;PMS5003;48703;51.248;-0.546;2023-04-27T07:24:16;44.16;37.86;
62631;PMS5003;48703;51.248;-0.546;2023-04-27T07:27:17;44.62;39.15;
62631;PMS5003;48703;51.248;-0.546;2023-04-27T07:30:18;42.76;36.90;
62631;PMS5003;48703;51.248;-0.546;2023-04-27T07:33:19;43.48;38.94;
62631;PMS5003;48703;51.248;-0.546;2023-04-27T07:36:21;43.33;39.65;
62631;PMS5003;48703;51.248;-0.546;2023-04-27T07:39:22;43.03;38.91;
62631;PMS5003;48703;51.248;-0.546;2023-04-27T07:42:23;43.93;39.25;
62631;PMS5003;48703;51.248;-0.546;2023-04-27T07:45:25;43.47;39.25;
62631;PMS5003;48703;51.248;-0.546;2023-04-27T07:48:26;42.68;35.74;
62631;PMS5003;48703;51.248;-0.546;2023-04-27T07:51:28;39.87;37.43;
62631;PMS5003;48703;51.248;-0.546;2023-04-27T07:54:30;39.80;36.25;
62631;PMS5003;48703;51.248;-0.546;2023-04-27T07:57:32;37.20;34.16;
62631;PMS5003;48703;51.248;-0.546;2023-04-27T08:00:33;38.51;33.99;
62631;PMS5003;48703;51.248;-0.546;2023-04-27T08:03:35;37.00;33.94;
62631;PMS5003;48703;51.248;-0.546;2023-04-27T08:06:36;33.19;30.60;
62631;PMS5003;48703;51.248;-0.546;2023-04-27T08:09:38;41.54;33.29;
62631;PMS5003;48703;51.248;-0.546;2023-04-27T08:12:40;38.61;34.86;
62631;PMS5003;48703;51.248;-0.546;2023-04-27T08:15:41;38.23;34.75;
62631;PMS5003;48703;51.248;-0.546;2023-04-27T08:18:43;38.28;34.26;
62631;PMS5003;48703;51.248;-0.546;2023-04-27T08:21:44;38.23;33.86;
62631;PMS5003;48703;51.248;-0.546;2023-04-27T08:24:45;35.07;32.81;
62631;PMS5003;48703;51.248;-0.546;2023-04-27T08:27:47;39.10;36.67;
62631;PMS5003;48703;51.248;-0.546;2023-04-27T08:30:48;38.17;34.69;
62631;PMS5003;48703;51.248;-0.546;2023-04-27T08:33:50;39.96;36.49;
62631;PMS5003;48703;51.248;-0.546;2023-04-27T08:36:51;36.16;33.33;
62631;PMS5003;48703;51.248;-0.546;2023-04-27T08:39:53;36.99;32.57;
62631;PMS5003;48703;51.248;-0.546;2023-04-27T08:42:56;34.49;31.61;
62631;PMS5003;48703;51.248;-0.546;2023-04-27T08:45:58;32.34;28.54;
62631;PMS5003;48703;51.248;-0.546;2023-04-27T08:48:59;34.03;28.89;
62631;PMS5003;48703;51.248;-0.546;2023-04-27T08:52:01;35.91;32.07;
62631;PMS5003;48703;51.248;-0.546;2023-04-27T08:55:02;35.88;31.65;
62631;PMS5003;48703;51.248;-0.546;2023-04-27T08:58:04;34.71;29.88;
62631;PMS5003;48703;51.248;-0.546;2023-04-27T09:01:05;32.38;29.78;
62631;PMS5003;48703;51.248;-0.546;2023-04-27T09:04:07;31.81;29.26;
62631;PMS5003;48703;51.248;-0.546;2023-04-27T09:07:09;28.32;26.87;
62631;PMS5003;48703;51.248;-0.546;2023-04-27T09:10:09;30.97;27.79;
62631;PMS5003;48703;51.248;-0.546;2023-04-27T09:13:09;29.38;27.36;
62631;PMS5003;48703;51.248;-0.546;2023-04-27T09:16:12;26.41;24.06;
62631;PMS5003;48703;51.248;-0.546;2023-04-27T09:19:22;30.59;25.87;
62631;PMS5003;48703;51.248;-0.546;2023-04-27T09:22:15;23.03;20.23;
62631;PMS5003;48703;51.248;-0.546;2023-04-27T09:25:25;24.91;23.55;
62631;PMS5003;48703;51.248;-0.546;2023-04-27T09:28:18;22.87;22.44;
62631;PMS5003;48703;51.248;-0.546;2023-04-27T09:31:20;25.00;22.50;
62631;PMS5003;48703;51.248;-0.546;2023-04-27T09:34:21;26.80;24.28;
62631;PMS5003;48703;51.248;-0.546;2023-04-27T09:37:23;25.06;23.80;
62631;PMS5003;48703;51.248;-0.546;2023-04-27T09:40:26;26.67;24.26;
62631;PMS5003;48703;51.248;-0.546;2023-04-27T09:43:27;21.70;20.16;
62631;PMS5003;48703;51.248;-0.546;2023-04-27T09:46:28;22.74;21.23;
62631;PMS5003;48703;51.248;-0.546;2023-04-27T09:49:29;25.74;22.89;
62631;PMS5003;48703;51.248;-0.546;2023-04-27T09:52:30;22.31;20.77;
62631;PMS5003;48703;51.248;-0.546;2023-04-27T09:55:33;23.67;21.84;
62631;PMS5003;48703;51.248;-0.546;2023-04-27T09:58:40;21.31;20.24;
62631;PMS5003;48703;51.248;-0.546;2023-04-27T10:01:36;22.36;20.52;
62631;PMS5003;48703;51.248;-0.546;2023-04-27T10:04:42;23.47;20.60;
62631;PMS5003;48703;51.248;-0.546;2023-04-27T10:07:38;17.84;16.89;
62631;PMS5003;48703;51.248;-0.546;2023-04-27T10:10:41;23.29;20.84;
62631;PMS5003;48703;51.248;-0.546;2023-04-27T10:13:49;18.30;16.70;
62631;PMS5003;48703;51.248;-0.546;2023-04-27T10:16:44;22.33;20.14;
62631;PMS5003;48703;51.248;-0.546;2023-04-27T10:19:52;19.68;18.19;
62631;PMS5003;48703;51.248;-0.546;2023-04-27T10:22:46;20.63;18.94;
62631;PMS5003;48703;51.248;-0.546;2023-04-27T10:25:47;19.59;18.13;
62631;PMS5003;48703;51.248;-0.546;2023-04-27T10:28:56;22.61;19.20;
62631;PMS5003;48703;51.248;-0.546;2023-04-27T10:31:49;20.28;18.20;
62631;PMS5003;48703;51.248;-0.546;2023-04-27T10:34:51;22.39;19.62;
62631;PMS5003;48703;51.248;-0.546;2023-04-27T10:37:52;18.76;17.07;
62631;PMS5003;48703;51.248;-0.546;2023-04-27T10:40:54;17.50;16.51;
62631;PMS5003;48703;51.248;-0.546;2023-04-27T10:43:56;20.57;18.39;
62631;PMS5003;48703;51.248;-0.546;2023-04-27T10:46:58;18.99;17.51;
62631;PMS5003;48703;51.248;-0.546;2023-04-27T10:49:58;20.79;18.17;
62631;PMS5003;48703;51.248;-0.546;2023-04-27T10:53:00;19.29;17.64;
62631;PMS5003;48703;51.248;-0.546;2023-04-27T10:56:01;18.60;17.49;
62631;PMS5003;48703;51.248;-0.546;2023-04-27T10:59:03;20.57;18.51;
62631;PMS5003;48703;51.248;-0.546;2023-04-27T11:02:04;19.99;17.40;
62631;PMS5003;48703;51.248;-0.546;2023-04-27T11:05:15;18.37;15.33;
62631;PMS5003;48703;51.248;-0.546;2023-04-27T11:08:07;19.88;18.41;
62631;PMS5003;48703;51.248;-0.546;2023-04-27T11:11:12;18.14;16.28;
62631;PMS5003;48703;51.248;-0.546;2023-04-27T11:14:09;17.74;17.09;
62631;PMS5003;48703;51.248;-0.546;2023-04-27T11:17:10;17.01;16.29;
62631;PMS5003;48703;51.248;-0.546;2023-04-27T11:20:12;16.41;14.77;
62631;PMS5003;48703;51.248;-0.546;2023-04-27T11:23:21;15.83;14.47;
62631;PMS5003;48703;51.248;-0.546;2023-04-27T11:26:17;17.51;15.56;
62631;PMS5003;48703;51.248;-0.546;2023-04-27T11:29:17;16.97;15.25;
62631;PMS5003;48703;51.248;-0.546;2023-04-27T11:32:18;15.96;15.00;
62631;PMS5003;48703;51.248;-0.546;2023-04-27T11:35:19;17.34;15.41;
62631;PMS5003;48703;51.248;-0.546;2023-04-27T11:38:22;16.10;14.56;
62631;PMS5003;48703;51.248;-0.546;2023-04-27T11:41:31;13.99;13.29;
62631;PMS5003;48703;51.248;-0.546;2023-04-27T11:44:24;15.34;13.67;
62631;PMS5003;48703;51.248;-0.546;2023-04-27T11:47:26;16.69;15.81;
62631;PMS5003;48703;51.248;-0.546;2023-04-27T11:50:27;16.94;14.96;
62631;PMS5003;48703;51.248;-0.546;2023-04-27T11:53:29;16.43;15.93;
62631;PMS5003;48703;51.248;-0.546;2023-04-27T11:56:33;18.70;17.21;
62631;PMS5003;48703;51.248;-0.546;2023-04-27T11:59:31;19.68;17.45;
62631;PMS5003;48703;51.248;-0.546;2023-04-27T12:02:33;14.13;14.13;
62631;PMS5003;48703;51.248;-0.546;2023-04-27T12:05:34;17.20;15.84;
62631;PMS5003;48703;51.248;-0.546;2023-04-27T12:08:35;18.07;16.36;
62631;PMS5003;48703;51.248;-0.546;2023-04-27T12:11:37;17.14;16.57;
62631;PMS5003;48703;51.248;-0.546;2023-04-27T12:14:38;17.39;15.78;
62631;PMS5003;48703;51.248;-0.546;2023-04-27T12:17:39;15.47;14.81;
62631;PMS5003;48703;51.248;-0.546;2023-04-27T12:20:41;14.91;14.53;
62631;PMS5003;48703;51.248;-0.546;2023-04-27T12:23:43;14.13;12.69;
62631;PMS5003;48703;51.248;-0.546;2023-04-27T12:26:45;16.54;14.90;
62631;PMS5003;48703;51.248;-0.546;2023-04-27T12:29:46;14.84;13.37;
62631;PMS5003;48703;51.248;-0.546;2023-04-27T12:32:47;16.89;14.73;
62631;PMS5003;48703;51.248;-0.546;2023-04-27T12:35:49;16.07;13.57;
62631;PMS5003;48703;51.248;-0.546;2023-04-27T12:38:51;15.27;13.99;
62631;PMS5003;48703;51.248;-0.546;2023-04-27T12:41:52;13.31;12.80;
62631;PMS5003;48703;51.248;-0.546;2023-04-27T12:44:54;14.70;12.30;
62631;PMS5003;48703;51.248;-0.546;2023-04-27T12:47:55;12.66;11.64;
62631;PMS5003;48703;51.248;-0.546;2023-04-27T12:50:57;14.93;13.00;
62631;PMS5003;48703;51.248;-0.546;2023-04-27T12:53:58;13.60;13.43;
62631;PMS5003;48703;51.248;-0.546;2023-04-27T12:57:00;16.94;15.23;
62631;PMS5003;48703;51.248;-0.546;2023-04-27T13:00:02;14.16;13.50;
62631;PMS5003;48703;51.248;-0.546;2023-04-27T13:03:03;16.53;15.46;
62631;PMS5003;48703;51.248;-0.546;2023-04-27T13:06:04;18.52;16.28;
62631;PMS5003;48703;51.248;-0.546;2023-04-27T13:09:06;15.65;14.48;
62631;PMS5003;48703;51.248;-0.546;2023-04-27T13:12:07;14.64;14.17;
62631;PMS5003;48703;51.248;-0.546;2023-04-27T13:15:08;16.90;16.49;
62631;PMS5003;48703;51.248;-0.546;2023-04-27T13:18:09;15.81;14.01;
62631;PMS5003;48703;51.248;-0.546;2023-04-27T13:21:10;14.96;14.21;
62631;PMS5003;48703;51.248;-0.546;2023-04-27T13:24:12;16.70;15.81;
62631;PMS5003;48703;51.248;-0.546;2023-04-27T13:27:13;15.37;14.90;
62631;PMS5003;48703;51.248;-0.546;2023-04-27T13:30:14;18.84;16.68;
62631;PMS5003;48703;51.248;-0.546;2023-04-27T13:33:16;21.36;18.71;
62631;PMS5003;48703;51.248;-0.546;2023-04-27T13:36:18;15.67;14.54;
62631;PMS5003;48703;51.248;-0.546;2023-04-27T13:39:19;17.46;15.66;
62631;PMS5003;48703;51.248;-0.546;2023-04-27T13:42:20;17.91;17.21;
62631;PMS5003;48703;51.248;-0.546;2023-04-27T13:45:22;19.14;18.04;
62631;PMS5003;48703;51.248;-0.546;2023-04-27T13:48:23;15.70;14.70;
62631;PMS5003;48703;51.248;-0.546;2023-04-27T13:51:24;17.41;15.17;
62631;PMS5003;48703;51.248;-0.546;2023-04-27T13:54:25;16.94;14.89;
62631;PMS5003;48703;51.248;-0.546;2023-04-27T13:57:27;17.43;15.59;
62631;PMS5003;48703;51.248;-0.546;2023-04-27T14:00:28;19.26;17.51;
62631;PMS5003;48703;51.248;-0.546;2023-04-27T14:03:29;19.80;17.35;
62631;PMS5003;48703;51.248;-0.546;2023-04-27T14:06:31;15.84;14.26;
62631;PMS5003;48703;51.248;-0.546;2023-04-27T14:09:32;15.71;14.19;
62631;PMS5003;48703;51.248;-0.546;2023-04-27T14:12:34;15.36;14.54;
62631;PMS5003;48703;51.248;-0.546;2023-04-27T14:15:35;17.68;16.00;
62631;PMS5003;48703;51.248;-0.546;2023-04-27T14:18:36;17.43;15.30;
62631;PMS5003;48703;51.248;-0.546;2023-04-27T14:21:38;17.50;16.13;
62631;PMS5003;48703;51.248;-0.546;2023-04-27T14:24:40;17.01;16.37;
62631;PMS5003;48703;51.248;-0.546;2023-04-27T14:27:41;18.74;16.39;
62631;PMS5003;48703;51.248;-0.546;2023-04-27T14:30:42;18.04;16.87;
62631;PMS5003;48703;51.248;-0.546;2023-04-27T14:33:44;17.11;15.17;
62631;PMS5003;48703;51.248;-0.546;2023-04-27T14:36:46;19.27;16.66;
62631;PMS5003;48703;51.248;-0.546;2023-04-27T14:39:48;19.10;17.01;
62631;PMS5003;48703;51.248;-0.546;2023-04-27T14:42:49;19.61;18.93;
62631;PMS5003;48703;51.248;-0.546;2023-04-27T14:45:51;19.60;18.81;
62631;PMS5003;48703;51.248;-0.546;2023-04-27T14:48:52;17.99;17.93;
62631;PMS5003;48703;51.248;-0.546;2023-04-27T14:51:53;19.80;19.03;
62631;PMS5003;48703;51.248;-0.546;2023-04-27T14:54:54;22.64;19.75;
62631;PMS5003;48703;51.248;-0.546;2023-04-27T14:57:55;22.20;20.36;
62631;PMS5003;48703;51.248;-0.546;2023-04-27T15:00:56;20.43;17.86;
62631;PMS5003;48703;51.248;-0.546;2023-04-27T15:03:58;20.86;19.16;
62631;PMS5003;48703;51.248;-0.546;2023-04-27T15:07:00;22.36;20.96;
62631;PMS5003;48703;51.248;-0.546;2023-04-27T15:10:01;19.39;18.34;
62631;PMS5003;48703;51.248;-0.546;2023-04-27T15:13:03;19.34;17.74;
62631;PMS5003;48703;51.248;-0.546;2023-04-27T15:16:04;23.59;20.14;
62631;PMS5003;48703;51.248;-0.546;2023-04-27T15:19:06;19.96;18.91;
62631;PMS5003;48703;51.248;-0.546;2023-04-27T15:22:07;22.64;20.53;
62631;PMS5003;48703;51.248;-0.546;2023-04-27T15:25:09;21.99;19.74;
62631;PMS5003;48703;51.248;-0.546;2023-04-27T15:28:10;23.71;21.88;
62631;PMS5003;48703;51.248;-0.546;2023-04-27T15:31:12;23.30;21.40;
62631;PMS5003;48703;51.248;-0.546;2023-04-27T15:34:13;23.32;20.52;
62631;PMS5003;48703;51.248;-0.546;2023-04-27T15:37:14;22.39;20.64;
62631;PMS5003;48703;51.248;-0.546;2023-04-27T15:40:16;22.90;21.87;
62631;PMS5003;48703;51.248;-0.546;2023-04-27T15:43:18;24.23;21.57;
62631;PMS5003;48703;51.248;-0.546;2023-04-27T15:46:20;22.09;20.73;
62631;PMS5003;48703;51.248;-0.546;2023-04-27T15:49:21;25.64;22.06;
62631;PMS5003;48703;51.248;-0.546;2023-04-27T15:52:23;24.65;23.29;
62631;PMS5003;48703;51.248;-0.546;2023-04-27T15:55:24;25.31;23.30;
62631;PMS5003;48703;51.248;-0.546;2023-04-27T15:58:26;27.03;24.67;
62631;PMS5003;48703;51.248;-0.546;2023-04-27T16:01:27;24.59;22.99;
62631;PMS5003;48703;51.248;-0.546;2023-04-27T16:04:28;25.54;23.07;
62631;PMS5003;48703;51.248;-0.546;2023-04-27T16:07:30;24.72;23.51;
62631;PMS5003;48703;51.248;-0.546;2023-04-27T16:10:31;27.11;23.90;
62631;PMS5003;48703;51.248;-0.546;2023-04-27T16:13:32;26.12;23.77;
62631;PMS5003;48703;51.248;-0.546;2023-04-27T16:16:34;24.90;22.68;
62631;PMS5003;48703;51.248;-0.546;2023-04-27T16:19:35;25.67;23.87;
62631;PMS5003;48703;51.248;-0.546;2023-04-27T16:22:36;30.10;27.22;
62631;PMS5003;48703;51.248;-0.546;2023-04-27T16:25:38;35.20;33.90;
62631;PMS5003;48703;51.248;-0.546;2023-04-27T16:28:39;39.14;37.03;
62631;PMS5003;48703;51.248;-0.546;2023-04-27T16:31:41;72.09;70.31;
62631;PMS5003;48703;51.248;-0.546;2023-04-27T16:34:42;45.46;42.70;
62631;PMS5003;48703;51.248;-0.546;2023-04-27T16:37:43;34.80;33.07;
62631;PMS5003;48703;51.248;-0.546;2023-04-27T16:40:45;34.41;30.72;
62631;PMS5003;48703;51.248;-0.546;2023-04-27T16:43:46;30.72;28.94;
62631;PMS5003;48703;51.248;-0.546;2023-04-27T16:46:47;31.43;29.67;
62631;PMS5003;48703;51.248;-0.546;2023-04-27T16:49:49;31.41;30.04;
62631;PMS5003;48703;51.248;-0.546;2023-04-27T16:52:52;30.45;27.68;
62631;PMS5003;48703;51.248;-0.546;2023-04-27T16:55:52;31.22;28.88;
62631;PMS5003;48703;51.248;-0.546;2023-04-27T16:58:54;31.99;28.54;
62631;PMS5003;48703;51.248;-0.546;2023-04-27T17:01:55;33.77;29.94;
62631;PMS5003;48703;51.248;-0.546;2023-04-27T17:04:57;31.00;28.58;
62631;PMS5003;48703;51.248;-0.546;2023-04-27T17:07:58;34.80;31.29;
62631;PMS5003;48703;51.248;-0.546;2023-04-27T17:10:59;30.64;27.96;
62631;PMS5003;48703;51.248;-0.546;2023-04-27T17:14:01;30.83;27.33;
62631;PMS5003;48703;51.248;-0.546;2023-04-27T17:17:02;28.83;27.13;
62631;PMS5003;48703;51.248;-0.546;2023-04-27T17:20:03;32.22;29.54;
62631;PMS5003;48703;51.248;-0.546;2023-04-27T17:23:04;31.10;27.71;
62631;PMS5003;48703;51.248;-0.546;2023-04-27T17:26:06;32.29;27.41;
62631;PMS5003;48703;51.248;-0.546;2023-04-27T17:29:07;32.24;27.81;
62631;PMS5003;48703;51.248;-0.546;2023-04-27T17:32:08;31.09;30.14;
62631;PMS5003;48703;51.248;-0.546;2023-04-27T17:35:10;29.16;26.07;
62631;PMS5003;48703;51.248;-0.546;2023-04-27T17:38:11;31.57;28.32;
62631;PMS5003;48703;51.248;-0.546;2023-04-27T17:41:13;30.39;28.38;
62631;PMS5003;48703;51.248;-0.546;2023-04-27T17:44:14;29.24;27.29;
62631;PMS5003;48703;51.248;-0.546;2023-04-27T17:47:16;29.47;25.46;
62631;PMS5003;48703;51.248;-0.546;2023-04-27T17:50:17;28.97;27.54;
62631;PMS5003;48703;51.248;-0.546;2023-04-27T17:53:19;28.32;25.75;
62631;PMS5003;48703;51.248;-0.546;2023-04-27T17:56:20;29.54;26.59;
62631;PMS5003;48703;51.248;-0.546;2023-04-27T17:59:22;28.70;25.71;